Time;durP1;ratioP1;P1;durP2;ratioP2;P2;SDS_P1;SDS_P2;PMS_P1;PMS_P2;Temp;Humidity;BMP_temperature;BMP_pressure;BME280_temperature;BME280_humidity;BME280_pressure;Samples;Min_cycle;Max_cycle;Signal;HPM_P1;HPM_P2
2022/12/08 00:01:31;;;;;;;0.70;0.70;;;;;;;-5.53;79.02;99528.41;4967200;28;20062;-74
2022/12/08 00:03:58;;;;;;;0.70;0.70;;;;;;;-5.51;79.25;99525.16;4967220;28;20023;-74
2022/12/08 00:09:29;;;;;;;0.70;0.70;;;;;;;-5.45;79.04;99511.03;4967245;29;20033;-74
2022/12/08 00:12:00;;;;;;;0.70;0.70;;;;;;;-5.44;79.05;99515.28;4967137;28;20019;-75
2022/12/08 00:14:34;;;;;;;0.80;0.80;;;;;;;-5.41;79.12;99510.34;4965797;29;20034;-74
2022/12/08 00:17:00;;;;;;;0.70;0.70;;;;;;;-5.40;79.28;99500.28;4967115;28;20265;-74
2022/12/08 00:19:27;;;;;;;0.65;0.65;;;;;;;-5.32;79.05;99494.69;4966821;28;20091;-73
2022/12/08 00:21:53;;;;;;;0.70;0.70;;;;;;;-5.25;78.82;99509.31;4966651;28;20395;-73
2022/12/08 00:24:19;;;;;;;0.70;0.70;;;;;;;-5.26;78.94;99502.53;4965445;29;20027;-73
2022/12/08 00:26:45;;;;;;;0.65;0.65;;;;;;;-5.31;78.49;99504.88;4966610;28;20023;-73
2022/12/08 00:29:11;;;;;;;0.70;0.70;;;;;;;-5.56;78.25;99481.13;4966972;28;20431;-74
2022/12/08 00:31:37;;;;;;;0.70;0.70;;;;;;;-5.54;78.05;99498.88;4966618;28;20033;-74
2022/12/08 00:34:02;;;;;;;0.65;0.65;;;;;;;-5.57;78.22;99504.66;4966616;28;20043;-74
2022/12/08 00:36:28;;;;;;;0.70;0.70;;;;;;;-5.62;78.31;99498.53;4964945;29;20027;-73
2022/12/08 00:38:53;;;;;;;0.70;0.70;;;;;;;-5.61;78.66;99498.59;4966555;28;20520;-72
2022/12/08 00:42:10;;;;;;;0.70;0.70;;;;;;;-5.56;78.43;99501.34;4966471;28;20023;-73
2022/12/08 00:44:09;;;;;;;0.73;0.73;;;;;;;-5.52;78.56;99493.06;4966114;29;20090;-72
2022/12/08 00:46:35;;;;;;;0.70;0.70;;;;;;;-5.45;78.52;99491.66;4965112;29;20039;-74
2022/12/08 00:49:01;;;;;;;0.70;0.70;;;;;;;-5.38;78.53;99486.06;4966302;28;20167;-74
2022/12/08 00:51:26;;;;;;;0.70;0.70;;;;;;;-5.36;78.51;99488.66;4966422;28;20035;-75
2022/12/08 00:53:52;;;;;;;0.70;0.70;;;;;;;-5.40;77.87;99481.75;4965785;29;20023;-74
2022/12/08 00:56:17;;;;;;;0.60;0.60;;;;;;;-5.38;77.98;99488.56;4965150;29;20523;-74
2022/12/08 00:58:42;;;;;;;0.70;0.70;;;;;;;-5.39;77.61;99483.47;4965191;29;20050;-74
2022/12/08 01:01:12;;;;;;;0.60;0.60;;;;;;;-5.48;77.53;99479.75;4965515;29;20038;-75
2022/12/08 01:03:38;;;;;;;0.70;0.70;;;;;;;-5.50;77.42;99478.84;4966149;29;20035;-74
2022/12/08 01:06:04;;;;;;;0.70;0.70;;;;;;;-5.65;77.40;99479.03;4966176;28;20031;-74
2022/12/08 01:08:30;;;;;;;0.70;0.70;;;;;;;-5.81;77.59;99469.94;4966199;28;20030;-75
2022/12/08 01:10:55;;;;;;;0.60;0.60;;;;;;;-5.83;77.55;99474.06;4966107;28;20032;-74
2022/12/08 01:13:21;;;;;;;0.70;0.70;;;;;;;-5.89;77.63;99472.16;4966348;28;20038;-74
2022/12/08 01:15:46;;;;;;;0.70;0.70;;;;;;;-5.88;77.60;99478.91;4964731;29;20050;-74
2022/12/08 01:18:12;;;;;;;2.50;2.38;;;;;;;-5.88;77.56;99475.53;4966410;28;20027;-76
2022/12/08 01:20:37;;;;;;;0.70;0.70;;;;;;;-5.85;77.64;99470.63;4966032;28;20027;-74
2022/12/08 01:23:02;;;;;;;0.70;0.70;;;;;;;-5.81;77.59;99480.06;4965891;28;20030;-74
2022/12/08 01:25:28;;;;;;;0.63;0.63;;;;;;;-5.83;77.47;99473.22;4966105;28;20027;-74
2022/12/08 01:27:53;;;;;;;0.70;0.70;;;;;;;-5.83;77.50;99475.75;4965976;28;20027;-74
2022/12/08 01:30:19;;;;;;;0.70;0.70;;;;;;;-5.86;77.31;99476.47;4965966;28;20027;-74
2022/12/08 01:32:45;;;;;;;0.70;0.70;;;;;;;-5.89;77.22;99476.31;4966023;28;20050;-74
2022/12/08 01:35:11;;;;;;;0.70;0.70;;;;;;;-6.01;77.18;99466.56;4964529;29;20025;-74
2022/12/08 01:37:36;;;;;;;0.65;0.65;;;;;;;-6.02;77.45;99470.75;4965937;28;20434;-74
2022/12/08 01:40:02;;;;;;;0.70;0.70;;;;;;;-6.04;77.53;99474.06;4965880;29;20455;-74
2022/12/08 01:42:28;;;;;;;0.70;0.70;;;;;;;-6.03;77.64;99465.63;4965940;28;20024;-74
2022/12/08 01:45:06;;;;;;;0.70;0.70;;;;;;;-6.07;77.55;99457.06;4965733;28;20251;-74
2022/12/08 01:47:40;;;;;;;0.90;0.90;;;;;;;-6.20;77.28;99449.78;4965676;29;20485;-74
2022/12/08 01:50:09;;;;;;;0.70;0.70;;;;;;;-6.21;77.33;99461.53;4966539;28;20130;-75
2022/12/08 01:52:39;;;;;;;0.70;0.70;;;;;;;-6.27;77.44;99459.59;4965965;28;20034;-73
2022/12/08 01:55:16;;;;;;;0.70;0.70;;;;;;;-6.37;77.56;99448.22;4965749;28;20051;-74
2022/12/08 01:57:46;;;;;;;0.70;0.70;;;;;;;-6.37;77.56;99459.97;4966564;28;20042;-73
2022/12/08 02:00:15;;;;;;;0.70;0.70;;;;;;;-6.34;77.70;99465.16;4965864;28;20055;-75
2022/12/08 02:02:51;;;;;;;0.70;0.70;;;;;;;-6.36;77.22;99469.31;4969985;28;20066;-74
2022/12/08 02:05:19;;;;;;;0.60;0.60;;;;;;;-6.49;77.34;99460.31;4970753;28;20031;-73
2022/12/08 02:07:46;;;;;;;0.70;0.70;;;;;;;-6.57;77.17;99466.66;4968584;29;20019;-73
2022/12/08 02:10:17;;;;;;;0.70;0.70;;;;;;;-6.67;77.62;99462.84;4969133;28;20047;-74
2022/12/08 02:12:43;;;;;;;0.90;0.90;;;;;;;-6.70;77.51;99455.13;4969449;28;20031;-74
2022/12/08 02:15:09;;;;;;;0.70;0.70;;;;;;;-6.66;77.95;99467.97;4968942;28;20034;-73
2022/12/08 02:17:54;;;;;;;0.60;0.60;;;;;;;-6.64;77.97;99458.81;4967868;29;20083;-75
2022/12/08 02:20:33;;;;;;;0.70;0.70;;;;;;;-6.57;78.04;99462.50;4969089;28;20043;-74
2022/12/08 02:22:58;;;;;;;0.70;0.70;;;;;;;-6.55;77.84;99457.50;4968654;28;20023;-75
2022/12/08 02:25:46;;;;;;;0.70;0.70;;;;;;;-6.58;77.61;99458.22;4968582;29;20061;-74
2022/12/08 02:28:33;;;;;;;0.70;0.70;;;;;;;-6.67;77.64;99455.28;4968937;28;20032;-75
2022/12/08 02:31:06;;;;;;;0.60;0.60;;;;;;;-6.82;77.63;99453.78;4968722;29;20051;-74
2022/12/08 02:33:50;;;;;;;0.60;0.60;;;;;;;-6.84;77.75;99451.19;4968748;28;20034;-74
2022/12/08 02:36:42;;;;;;;0.70;0.70;;;;;;;-6.82;77.58;99463.88;4968547;28;20074;-74
2022/12/08 02:39:29;;;;;;;0.80;0.80;;;;;;;-6.91;77.74;99463.44;4968155;28;20031;-74
2022/12/08 02:42:33;;;;;;;0.70;0.70;;;;;;;-6.98;77.96;99459.78;4968750;29;20035;-74
2022/12/08 02:45:08;;;;;;;0.70;0.70;;;;;;;-7.05;78.02;99448.53;4927824;29;20039;-75
2022/12/08 02:47:34;;;;;;;0.70;0.70;;;;;;;-7.10;78.11;99448.31;4927720;29;20036;-74
2022/12/08 02:49:59;;;;;;;1.95;1.85;;;;;;;-7.06;78.27;99448.47;4927824;29;20524;-75
2022/12/08 02:52:25;;;;;;;0.70;0.70;;;;;;;-7.06;78.33;99450.97;4927576;29;20039;-74
2022/12/08 02:54:54;;;;;;;0.70;0.70;;;;;;;-7.08;78.24;99445.88;4927783;29;20095;-75
2022/12/08 02:57:46;;;;;;;0.70;0.70;;;;;;;-7.06;78.44;99438.38;4927609;29;20132;-75
2022/12/08 03:00:15;;;;;;;0.80;0.80;;;;;;;-7.04;78.24;99432.59;4927748;29;20036;-75
2022/12/08 03:02:55;;;;;;;0.70;0.70;;;;;;;-7.08;78.39;99433.25;4927801;29;20153;-76
2022/12/08 03:05:44;;;;;;;0.70;0.70;;;;;;;-7.11;78.42;99425.53;4911465;29;20040;-76
2022/12/08 03:08:15;;;;;;;0.70;0.70;;;;;;;-7.08;78.57;99420.63;4926979;29;20032;-75
2022/12/08 03:10:51;;;;;;;0.70;0.70;;;;;;;-7.16;78.64;99419.41;4927818;29;20029;-74
2022/12/08 03:13:21;;;;;;;0.70;0.70;;;;;;;-7.22;79.01;99417.47;4910938;29;20127;-75
2022/12/08 03:15:49;;;;;;;0.70;0.70;;;;;;;-7.16;79.24;99424.44;4912105;29;20168;-76
2022/12/08 03:18:18;;;;;;;0.70;0.70;;;;;;;-7.22;79.37;99403.19;4936695;29;20035;-75
2022/12/08 03:20:46;;;;;;;0.70;0.70;;;;;;;-7.15;79.79;99408.50;4966647;29;20051;-74
2022/12/08 03:23:14;;;;;;;0.70;0.70;;;;;;;-7.10;79.83;99402.03;4967711;28;20031;-74
2022/12/08 03:25:49;;;;;;;0.70;0.70;;;;;;;-7.00;79.98;99396.63;4967943;28;20023;-74
2022/12/08 03:28:15;;;;;;;0.68;0.68;;;;;;;-6.99;80.07;99388.25;4965381;29;20036;-74
2022/12/08 03:30:45;;;;;;;0.60;0.60;;;;;;;-6.95;80.09;99395.97;4966818;28;20162;-74
2022/12/08 03:33:25;;;;;;;0.70;0.70;;;;;;;-7.09;80.04;99373.47;4967570;28;20102;-75
2022/12/08 03:35:52;;;;;;;0.60;0.60;;;;;;;-7.00;79.89;99384.00;4967700;28;20063;-75
2022/12/08 03:38:18;;;;;;;0.60;0.60;;;;;;;-7.01;80.07;99392.34;4965848;29;20027;-73
2022/12/08 03:41:17;;;;;;;0.70;0.70;;;;;;;-7.03;80.03;99388.91;4967807;28;20030;-73
2022/12/08 03:43:29;;;;;;;0.70;0.70;;;;;;;-7.06;80.39;99388.75;4967381;29;20071;-73
2022/12/08 03:45:55;;;;;;;0.70;0.70;;;;;;;-7.07;80.54;99392.06;4967342;28;20093;-72
2022/12/08 03:48:20;;;;;;;3.42;3.25;;;;;;;-7.10;80.68;99376.81;4966916;28;20055;-72
2022/12/08 03:50:45;;;;;;;0.70;0.70;;;;;;;-7.04;80.52;99378.72;4964677;29;20027;-73
2022/12/08 03:53:11;;;;;;;0.70;0.70;;;;;;;-7.07;80.75;99369.38;4965909;28;20023;-73
2022/12/08 03:55:36;;;;;;;0.60;0.60;;;;;;;-6.94;81.00;99378.38;4965669;28;20101;-73
2022/12/08 03:58:01;;;;;;;0.70;0.70;;;;;;;-6.97;80.96;99363.97;4966909;28;20074;-73
2022/12/08 04:00:26;;;;;;;0.70;0.70;;;;;;;-7.01;80.89;99364.59;4966733;28;20027;-73
2022/12/08 04:02:52;;;;;;;0.80;0.80;;;;;;;-7.01;80.82;99361.22;4967203;28;20034;-73
2022/12/08 04:05:17;;;;;;;0.70;0.70;;;;;;;-7.03;80.85;99351.06;4965784;29;20171;-75
2022/12/08 04:07:43;;;;;;;0.70;0.70;;;;;;;-7.03;80.89;99357.75;4965577;29;20019;-74
2022/12/08 04:10:08;;;;;;;0.70;0.70;;;;;;;-7.05;81.15;99355.19;4967038;29;20055;-74
2022/12/08 04:12:34;;;;;;;0.60;0.60;;;;;;;-7.02;81.47;99352.78;4966926;28;20600;-75
2022/12/08 04:14:59;;;;;;;0.70;0.70;;;;;;;-6.97;81.36;99353.88;4965582;29;20040;-73
2022/12/08 04:17:24;;;;;;;0.60;0.60;;;;;;;-6.98;81.74;99353.81;4967027;28;20067;-73
2022/12/08 04:19:50;;;;;;;0.70;0.70;;;;;;;-6.92;81.54;99360.78;4965603;29;20063;-74
2022/12/08 04:22:15;;;;;;;0.60;0.60;;;;;;;-6.93;81.71;99361.59;4967018;28;20027;-73
2022/12/08 04:24:40;;;;;;;0.70;0.70;;;;;;;-6.89;81.68;99365.97;4964670;28;20030;-74
2022/12/08 04:27:06;;;;;;;0.70;0.70;;;;;;;-6.86;81.66;99363.56;4966891;28;20027;-74
2022/12/08 04:29:31;;;;;;;0.70;0.70;;;;;;;-6.87;82.24;99354.28;4966698;28;20027;-74
2022/12/08 04:31:56;;;;;;;0.63;0.63;;;;;;;-6.86;81.76;99356.00;4966651;28;20031;-75
2022/12/08 04:34:22;;;;;;;0.60;0.60;;;;;;;-6.74;81.84;99356.53;4966916;28;20043;-74
2022/12/08 04:36:47;;;;;;;0.70;0.70;;;;;;;-6.72;81.52;99349.91;4966750;29;20438;-75
2022/12/08 04:39:12;;;;;;;0.80;0.80;;;;;;;-6.80;81.87;99350.34;4966570;28;20031;-74
2022/12/08 04:41:38;;;;;;;1.38;1.38;;;;;;;-6.80;82.05;99347.81;4966500;28;20123;-75
2022/12/08 04:44:03;;;;;;;0.70;0.70;;;;;;;-6.74;82.09;99348.13;4966844;28;20027;-76
2022/12/08 04:46:28;;;;;;;0.98;0.98;;;;;;;-6.78;82.12;99351.28;4964853;29;20035;-74
2022/12/08 04:48:54;;;;;;;0.70;0.70;;;;;;;-6.82;82.14;99340.19;4965298;29;20027;-74
2022/12/08 04:51:19;;;;;;;0.70;0.70;;;;;;;-6.78;82.06;99349.63;4966528;28;20095;-73
2022/12/08 04:53:45;;;;;;;0.70;0.70;;;;;;;-6.80;82.06;99338.59;4966188;29;20031;-75
2022/12/08 04:56:12;;;;;;;0.70;0.70;;;;;;;-6.86;82.55;99336.69;4966452;28;20110;-73
2022/12/08 04:58:38;;;;;;;0.70;0.70;;;;;;;-6.81;82.34;99319.22;4966214;28;20031;-74
2022/12/08 05:01:04;;;;;;;0.70;0.70;;;;;;;-6.77;82.24;99330.31;4966574;28;20082;-73
2022/12/08 05:03:29;;;;;;;0.68;0.68;;;;;;;-6.85;82.68;99319.84;4965065;29;20094;-73
2022/12/08 05:05:54;;;;;;;0.70;0.70;;;;;;;-6.79;82.27;99332.78;4964901;29;20023;-74
2022/12/08 05:08:20;;;;;;;0.70;0.70;;;;;;;-6.85;82.64;99329.94;4966259;28;20083;-74
2022/12/08 05:10:45;;;;;;;0.70;0.70;;;;;;;-6.88;82.48;99320.59;4966212;28;20027;-74
2022/12/08 05:13:10;;;;;;;0.65;0.65;;;;;;;-6.84;82.78;99329.19;4966401;28;20361;-73
2022/12/08 05:15:36;;;;;;;0.70;0.70;;;;;;;-6.78;82.69;99331.09;4964872;29;20038;-73
2022/12/08 05:18:03;;;;;;;0.77;0.77;;;;;;;-6.70;82.53;99324.72;4966085;28;20055;-75
2022/12/08 05:20:29;;;;;;;0.70;0.70;;;;;;;-6.73;82.56;99325.47;4966133;28;20023;-75
2022/12/08 05:22:54;;;;;;;0.70;0.70;;;;;;;-6.73;82.71;99334.69;4964735;29;20026;-74
2022/12/08 05:25:19;;;;;;;0.70;0.70;;;;;;;-6.66;82.70;99329.09;4966312;28;20023;-75
2022/12/08 05:27:45;;;;;;;0.70;0.70;;;;;;;-6.76;82.81;99322.81;4966155;29;20070;-72
2022/12/08 05:30:10;;;;;;;0.70;0.70;;;;;;;-6.65;82.92;99329.97;4966318;28;20023;-73
2022/12/08 05:32:35;;;;;;;0.70;0.70;;;;;;;-6.67;82.59;99332.44;4966007;28;20216;-73
2022/12/08 05:35:01;;;;;;;0.70;0.70;;;;;;;-6.72;82.90;99328.84;4965982;28;20027;-74
2022/12/08 05:37:26;;;;;;;0.70;0.70;;;;;;;-6.68;82.96;99317.22;4969478;29;20024;-74
2022/12/08 05:39:51;;;;;;;0.70;0.70;;;;;;;-6.61;82.95;99311.63;4968616;29;20078;-71
2022/12/08 05:42:17;;;;;;;1.00;1.00;;;;;;;-6.56;82.85;99320.28;4968593;29;20042;-73
2022/12/08 05:44:42;;;;;;;0.70;0.70;;;;;;;-6.52;82.96;99321.28;4969718;28;20038;-73
2022/12/08 05:47:08;;;;;;;0.70;0.70;;;;;;;-6.45;83.17;99322.41;4969436;28;20043;-72
2022/12/08 05:49:33;;;;;;;0.70;0.70;;;;;;;-6.34;82.94;99331.28;4969776;28;20034;-72
2022/12/08 05:51:58;;;;;;;1.00;1.00;;;;;;;-6.35;83.10;99314.41;4969560;29;20082;-71
2022/12/08 05:54:24;;;;;;;0.70;0.70;;;;;;;-6.27;83.18;99319.78;4969394;28;20050;-71
2022/12/08 05:56:49;;;;;;;0.70;0.70;;;;;;;-6.20;83.31;99320.91;4969464;29;20023;-72
2022/12/08 05:59:15;;;;;;;0.70;0.70;;;;;;;-6.13;83.33;99325.41;4968410;29;20028;-64
2022/12/08 06:01:41;;;;;;;0.60;0.60;;;;;;;-6.12;83.46;99314.50;4969612;28;20034;-67
2022/12/08 06:04:07;;;;;;;0.70;0.70;;;;;;;-5.98;83.23;99315.03;4969408;28;20031;-72
2022/12/08 06:06:34;;;;;;;0.70;0.70;;;;;;;-5.96;83.28;99321.03;4969310;28;20065;-72
2022/12/08 06:09:01;;;;;;;0.60;0.60;;;;;;;-5.93;83.38;99317.75;4967656;29;20082;-74
2022/12/08 06:11:29;;;;;;;0.70;0.70;;;;;;;-5.95;83.49;99300.00;4969421;28;20031;-74
2022/12/08 06:13:56;;;;;;;0.70;0.70;;;;;;;-5.82;83.24;99316.53;4969319;28;20023;-75
2022/12/08 06:16:22;;;;;;;0.70;0.70;;;;;;;-5.78;83.31;99302.34;4967834;29;20057;-76
2022/12/08 06:18:48;;;;;;;0.63;0.63;;;;;;;-5.83;83.39;99306.34;4969366;28;20015;-77
2022/12/08 06:21:15;;;;;;;1.15;1.15;;;;;;;-5.94;83.06;99285.72;4969003;28;20038;-76
2022/12/08 06:23:41;;;;;;;0.70;0.70;;;;;;;-5.92;83.43;99304.31;4967802;29;20027;-75
2022/12/08 06:26:10;;;;;;;0.70;0.70;;;;;;;-5.87;83.80;99297.78;4968786;28;20070;-76
2022/12/08 06:28:36;;;;;;;0.60;0.60;;;;;;;-5.75;83.73;99298.25;4968963;28;20035;-76
2022/12/08 06:31:17;;;;;;;0.60;0.60;;;;;;;-5.66;83.78;99295.25;4967490;29;20070;-76
2022/12/08 06:33:42;;;;;;;0.60;0.60;;;;;;;-5.70;83.58;99290.00;4969397;28;20028;-79
2022/12/08 06:36:10;;;;;;;0.60;0.60;;;;;;;-5.61;84.10;99300.47;4967311;29;20090;-77
2022/12/08 06:38:35;;;;;;;0.60;0.60;;;;;;;-5.61;84.06;99293.75;4968595;28;20031;-76
2022/12/08 06:41:01;;;;;;;0.70;0.70;;;;;;;-5.54;83.82;99286.41;4966820;29;20016;-76
2022/12/08 06:43:26;;;;;;;0.70;0.70;;;;;;;-5.50;83.95;99301.78;4968797;28;20054;-77
2022/12/08 06:45:52;;;;;;;0.60;0.60;;;;;;;-5.41;83.94;99296.19;4968884;28;20026;-78
2022/12/08 06:48:17;;;;;;;0.70;0.70;;;;;;;-5.31;83.97;99289.81;4967613;28;20367;-78
2022/12/08 06:50:43;;;;;;;0.60;0.60;;;;;;;-5.18;83.87;99295.31;4968886;28;20282;-77
2022/12/08 06:53:13;;;;;;;0.70;0.70;;;;;;;-5.12;83.82;99298.09;4966973;29;20063;-76
2022/12/08 06:55:50;;;;;;;0.65;0.65;;;;;;;-5.11;83.97;99290.53;4967130;29;20055;-75
2022/12/08 06:58:15;;;;;;;0.70;0.70;;;;;;;-4.97;83.87;99295.25;4967307;29;20031;-76
2022/12/08 07:00:41;;;;;;;0.60;0.60;;;;;;;-4.91;83.88;99290.44;4967449;29;20031;-76
2022/12/08 07:03:08;;;;;;;0.60;0.60;;;;;;;-4.87;83.74;99294.78;4968439;28;20094;-77
2022/12/08 07:05:35;;;;;;;0.60;0.60;;;;;;;-4.76;83.90;99295.16;4968474;28;20028;-76
2022/12/08 07:08:00;;;;;;;0.60;0.60;;;;;;;-4.82;83.64;99273.84;4968048;28;20034;-76
2022/12/08 07:10:26;;;;;;;0.70;0.70;;;;;;;-4.66;83.52;99296.34;4968580;28;20027;-76
2022/12/08 07:12:51;;;;;;;0.60;0.60;;;;;;;-4.76;83.35;99287.56;4967222;29;20027;-76
2022/12/08 07:15:19;;;;;;;0.63;0.63;;;;;;;-4.69;83.54;99291.19;4968142;28;20023;-76
2022/12/08 07:17:46;;;;;;;0.70;0.70;;;;;;;-4.73;82.77;99281.75;4968250;28;20090;-76
2022/12/08 07:20:11;;;;;;;0.60;0.60;;;;;;;-4.72;83.06;99291.06;4966870;29;20027;-77
2022/12/08 07:22:36;;;;;;;0.60;0.60;;;;;;;-4.74;82.97;99277.47;4968050;28;20042;-76
2022/12/08 07:25:02;;;;;;;0.60;0.60;;;;;;;-4.69;83.07;99281.03;4968096;28;20375;-76
2022/12/08 07:27:27;;;;;;;0.60;0.60;;;;;;;-4.76;82.83;99272.38;4967073;28;20023;-76
2022/12/08 07:29:53;;;;;;;0.70;0.70;;;;;;;-4.73;83.09;99284.28;4967010;28;20027;-76
2022/12/08 07:32:18;;;;;;;0.60;0.60;;;;;;;-4.70;83.18;99288.59;4966696;29;20095;-76
2022/12/08 07:34:43;;;;;;;0.70;0.70;;;;;;;-4.61;83.18;99288.91;4968094;28;20058;-76
2022/12/08 07:37:09;;;;;;;0.55;0.55;;;;;;;-4.65;82.83;99276.97;4967769;28;20119;-76
2022/12/08 07:39:34;;;;;;;0.60;0.60;;;;;;;-4.63;82.86;99280.38;4966909;28;20019;-75
2022/12/08 07:42:00;;;;;;;0.60;0.60;;;;;;;-4.65;83.05;99282.03;4966388;28;20099;-75
2022/12/08 07:44:25;;;;;;;0.60;0.60;;;;;;;-4.67;83.48;99291.22;4965251;29;20491;-76
2022/12/08 07:46:50;;;;;;;0.98;0.98;;;;;;;-4.66;83.59;99285.34;4967640;28;20455;-76
2022/12/08 07:49:15;;;;;;;0.68;0.68;;;;;;;-4.59;83.54;99279.69;4966318;29;20031;-76
2022/12/08 07:51:41;;;;;;;0.70;0.70;;;;;;;-4.54;83.25;99282.41;4967509;28;20075;-76
2022/12/08 07:54:10;;;;;;;0.60;0.60;;;;;;;-4.61;83.40;99255.97;4965925;29;20038;-76
2022/12/08 07:56:36;;;;;;;0.60;0.60;;;;;;;-4.41;83.34;99278.63;4965878;29;20047;-76
2022/12/08 07:59:01;;;;;;;0.70;0.70;;;;;;;-4.55;83.57;99268.84;4967456;28;20534;-76
2022/12/08 08:01:29;;;;;;;0.70;0.70;;;;;;;-4.48;83.64;99273.34;4966099;29;20031;-75
2022/12/08 08:03:56;;;;;;;0.60;0.60;;;;;;;-4.41;83.63;99271.00;4967625;28;20117;-75
2022/12/08 08:06:23;;;;;;;0.60;0.60;;;;;;;-4.32;83.92;99272.97;4967389;28;20031;-76
2022/12/08 08:08:48;;;;;;;0.60;0.60;;;;;;;-4.23;84.03;99276.69;4967188;28;20027;-76
2022/12/08 08:11:14;;;;;;;0.60;0.60;;;;;;;-4.13;84.01;99277.00;4967277;28;20031;-75
2022/12/08 08:13:39;;;;;;;0.60;0.60;;;;;;;-4.08;83.44;99284.75;4967220;28;20043;-76
2022/12/08 08:16:07;;;;;;;0.70;0.70;;;;;;;-3.92;83.06;99286.09;4967145;29;20514;-76
2022/12/08 08:18:33;;;;;;;0.60;0.60;;;;;;;-4.02;83.11;99283.28;4965684;29;20026;-76
2022/12/08 08:20:58;;;;;;;0.70;0.70;;;;;;;-3.98;83.27;99277.47;4966934;28;20030;-77
2022/12/08 08:23:24;;;;;;;0.60;0.60;;;;;;;-4.04;83.37;99278.97;4966808;29;20031;-75
2022/12/08 08:25:49;;;;;;;0.60;0.60;;;;;;;-4.02;83.04;99275.66;4966904;28;20023;-75
2022/12/08 08:28:14;;;;;;;0.60;0.60;;;;;;;-3.99;83.29;99280.84;4966955;28;20042;-77
2022/12/08 08:30:40;;;;;;;0.68;0.68;;;;;;;-3.91;83.26;99276.00;4966672;28;20027;-76
2022/12/08 08:33:06;;;;;;;0.50;0.50;;;;;;;-3.93;83.26;99279.31;4966866;28;20035;-76
2022/12/08 08:35:32;;;;;;;0.70;0.70;;;;;;;-3.80;83.13;99278.03;4966554;28;20128;-76
2022/12/08 08:37:57;;;;;;;0.60;0.60;;;;;;;-3.81;82.95;99272.09;4966546;28;20023;-76
2022/12/08 08:40:23;;;;;;;0.60;0.60;;;;;;;-3.75;83.23;99273.94;4966897;29;20079;-76
2022/12/08 08:42:48;;;;;;;0.70;0.70;;;;;;;-3.71;82.95;99269.84;4967060;29;20027;-77
2022/12/08 08:45:14;;;;;;;0.60;0.60;;;;;;;-3.74;83.14;99276.53;4965490;29;20121;-77
2022/12/08 08:47:39;;;;;;;0.60;0.60;;;;;;;-3.79;83.12;99267.06;4965293;29;20030;-76
2022/12/08 08:50:05;;;;;;;0.70;0.70;;;;;;;-3.67;83.12;99275.06;4966471;29;20466;-75
2022/12/08 08:52:31;;;;;;;0.65;0.65;;;;;;;-3.67;83.11;99266.56;4966091;28;20023;-75
2022/12/08 08:54:56;;;;;;;0.60;0.60;;;;;;;-3.62;83.11;99265.06;4966136;29;20061;-75
2022/12/08 08:57:21;;;;;;;0.70;0.70;;;;;;;-3.68;83.63;99275.00;4965363;29;20020;-76
2022/12/08 08:59:47;;;;;;;0.50;0.50;;;;;;;-3.61;83.79;99269.34;4965043;29;20031;-75
2022/12/08 09:02:16;;;;;;;0.60;0.60;;;;;;;-3.57;83.93;99268.59;4966599;29;20030;-75
2022/12/08 09:04:41;;;;;;;0.60;0.60;;;;;;;-3.46;83.70;99268.03;4966208;28;20435;-76
2022/12/08 09:07:06;;;;;;;0.60;0.60;;;;;;;-3.43;83.58;99263.94;4966246;28;20027;-76
2022/12/08 09:09:32;;;;;;;0.60;0.60;;;;;;;-3.35;83.45;99266.69;4964629;29;20023;-76
2022/12/08 09:11:57;;;;;;;0.60;0.60;;;;;;;-3.30;83.45;99261.75;4965843;28;20023;-75
2022/12/08 09:14:22;;;;;;;0.60;0.60;;;;;;;-3.31;83.54;99260.91;4966284;28;20617;-75
2022/12/08 09:16:48;;;;;;;0.70;0.70;;;;;;;-3.29;83.54;99251.63;4966232;28;20055;-76
2022/12/08 09:19:13;;;;;;;0.60;0.60;;;;;;;-3.31;83.60;99255.84;4966016;28;20116;-76
2022/12/08 09:21:39;;;;;;;0.60;0.60;;;;;;;-3.26;83.72;99250.88;4965896;28;20023;-76
2022/12/08 09:24:05;;;;;;;0.80;0.80;;;;;;;-3.15;83.80;99266.44;4963227;29;20200;-76
2022/12/08 09:26:30;;;;;;;0.60;0.60;;;;;;;-3.12;83.96;99267.38;4964743;29;20118;-77
2022/12/08 09:28:56;;;;;;;0.50;0.50;;;;;;;-2.97;83.68;99260.16;4965934;28;20100;-76
2022/12/08 09:31:22;;;;;;;0.60;0.60;;;;;;;-2.90;83.35;99262.91;4966153;28;20079;-75
2022/12/08 09:33:50;;;;;;;0.60;0.60;;;;;;;-2.87;83.60;99257.91;4965834;28;20051;-76
2022/12/08 09:36:16;;;;;;;0.60;0.60;;;;;;;-2.76;83.35;99255.66;4964533;29;20050;-76
2022/12/08 09:38:42;;;;;;;0.60;0.60;;;;;;;-2.71;83.43;99257.44;4965731;28;20043;-76
2022/12/08 09:41:29;;;;;;;1.73;1.67;;;;;;;-2.66;83.91;99259.31;4966078;28;20027;-76
2022/12/08 09:44:32;;;;;;;0.70;0.70;;;;;;;-2.50;83.83;99259.69;4965990;28;20034;-76
2022/12/08 09:47:00;;;;;;;0.70;0.70;;;;;;;-2.45;83.47;99249.66;4965627;29;20054;-76
2022/12/08 09:50:02;;;;;;;0.60;0.60;;;;;;;-2.42;83.18;99244.66;4964686;29;20035;-75
2022/12/08 09:52:34;;;;;;;0.73;0.73;;;;;;;-2.35;83.37;99251.63;4960951;29;20031;-75
2022/12/08 09:55:08;;;;;;;0.80;0.80;;;;;;;-2.38;83.49;99246.47;4965917;28;20048;-75
2022/12/08 09:57:34;;;;;;;0.50;0.50;;;;;;;-2.28;83.37;99235.69;4965985;28;20061;-76
2022/12/08 10:00:04;;;;;;;0.60;0.60;;;;;;;-2.18;83.61;99230.81;4964576;29;20027;-76
2022/12/08 10:02:30;;;;;;;1.95;1.80;;;;;;;-2.08;83.66;99224.28;4966072;28;20035;-75
2022/12/08 10:04:57;;;;;;;0.60;0.60;;;;;;;-1.81;83.75;99228.28;4965964;28;20058;-75
2022/12/08 10:07:29;;;;;;;0.60;0.60;;;;;;;-1.64;83.77;99221.03;4966129;28;20027;-76
2022/12/08 10:10:10;;;;;;;0.55;0.55;;;;;;;-1.39;83.73;99219.88;4965898;28;20031;-76
2022/12/08 10:12:39;;;;;;;0.80;0.80;;;;;;;-0.94;84.28;99222.44;4966104;28;20479;-76
2022/12/08 10:15:27;;;;;;;0.50;0.50;;;;;;;-0.48;84.03;99211.41;4964704;29;20273;-75
2022/12/08 10:17:55;;;;;;;0.50;0.50;;;;;;;-0.05;83.58;99212.94;4965792;29;20038;-78
2022/12/08 10:20:25;;;;;;;0.60;0.60;;;;;;;0.14;83.11;99208.09;4966705;28;20527;-76
2022/12/08 10:23:06;;;;;;;0.70;0.70;;;;;;;0.22;82.44;99202.25;4966795;28;20027;-75
2022/12/08 10:25:40;;;;;;;0.57;0.57;;;;;;;0.37;81.15;99200.75;4967764;29;20026;-77
2022/12/08 10:28:06;;;;;;;0.50;0.50;;;;;;;0.49;80.46;99208.59;4969193;28;20078;-75
2022/12/08 10:30:32;;;;;;;0.50;0.50;;;;;;;0.58;80.41;99201.88;4969139;28;20049;-73
2022/12/08 10:32:57;;;;;;;0.50;0.50;;;;;;;0.65;80.13;99190.03;4969013;28;20460;-72
2022/12/08 10:35:24;;;;;;;0.50;0.50;;;;;;;0.73;78.87;99198.66;4969185;28;20027;-73
2022/12/08 10:37:59;;;;;;;0.50;0.50;;;;;;;0.78;77.36;99193.59;4967232;29;20019;-73
2022/12/08 10:40:35;;;;;;;0.50;0.50;;;;;;;0.80;76.23;99181.72;4967513;29;20027;-74
2022/12/08 10:43:03;;;;;;;0.50;0.50;;;;;;;0.88;76.31;99189.47;4968593;28;20027;-75
2022/12/08 10:45:37;;;;;;;0.50;0.50;;;;;;;0.86;75.33;99171.56;4968693;28;20494;-76
2022/12/08 10:48:12;;;;;;;0.60;0.60;;;;;;;0.92;74.45;99184.41;4967145;29;20027;-76
2022/12/08 10:50:43;;;;;;;0.50;0.50;;;;;;;0.97;74.16;99187.88;4968628;28;20035;-76
2022/12/08 10:53:44;;;;;;;0.60;0.60;;;;;;;1.01;73.15;99191.31;4968318;28;20292;-76
2022/12/08 10:56:16;;;;;;;0.50;0.50;;;;;;;1.01;72.96;99180.25;4968214;28;20047;-76
2022/12/08 10:58:47;;;;;;;0.50;0.50;;;;;;;1.06;73.19;99170.91;4968640;28;20030;-76
2022/12/08 11:01:31;;;;;;;0.60;0.60;;;;;;;1.07;73.02;99178.59;4968277;28;20054;-75
2022/12/08 11:04:02;;;;;;;0.50;0.50;;;;;;;1.04;73.10;99170.88;4968374;28;20058;-73
2022/12/08 11:06:27;;;;;;;0.50;0.50;;;;;;;1.09;72.89;99168.38;4968288;28;20038;-74
2022/12/08 11:09:18;;;;;;;0.50;0.50;;;;;;;1.06;72.53;99179.44;4968166;29;20038;-74
2022/12/08 11:11:46;;;;;;;0.70;0.70;;;;;;;1.08;72.52;99169.22;4968621;28;20023;-75
2022/12/08 11:14:23;;;;;;;0.60;0.60;;;;;;;1.06;72.31;99168.34;4968096;28;20027;-74
2022/12/08 11:16:52;;;;;;;0.50;0.50;;;;;;;0.99;72.37;99170.00;4968306;28;20032;-76
2022/12/08 11:19:19;;;;;;;0.60;0.60;;;;;;;1.05;72.42;99172.63;4966742;29;20042;-75
2022/12/08 11:21:45;;;;;;;0.50;0.50;;;;;;;1.02;72.44;99164.06;4966860;29;20035;-69
2022/12/08 11:24:13;;;;;;;0.50;0.50;;;;;;;1.04;71.80;99163.22;4966472;29;20049;-75
2022/12/08 11:26:44;;;;;;;0.50;0.50;;;;;;;1.01;71.70;99158.06;4966092;29;20035;-77
2022/12/08 11:29:11;;;;;;;0.60;0.60;;;;;;;1.02;71.20;99164.94;4966752;28;20035;-76
2022/12/08 11:31:48;;;;;;;0.57;0.57;;;;;;;1.01;70.38;99160.63;4965848;29;20530;-77
2022/12/08 11:34:36;;;;;;;0.50;0.50;;;;;;;0.99;69.18;99164.91;4966323;28;20098;-79
2022/12/08 11:37:05;;;;;;;0.50;0.50;;;;;;;0.94;69.05;99149.47;4966567;29;20041;-77
2022/12/08 11:39:35;;;;;;;0.50;0.50;;;;;;;0.97;69.00;99161.47;4967690;28;20047;-79
2022/12/08 11:42:03;;;;;;;0.50;0.50;;;;;;;1.00;69.21;99153.81;4967689;28;20058;-77
2022/12/08 11:44:39;;;;;;;0.85;0.85;;;;;;;1.02;69.27;99149.59;4967577;28;20535;-77